Terminal Aerodrome Forecast
Issued by NWS Sioux Falls, SD

Home | Current Version | Previous Version | Text Only | Print | Product List | Glossary On
Versions: 1 2 3 4 5 6 7 8 9 10 11 12 13 14 15 16 17 18 19 20 21 22 23 24 25 26 27 28 29 30 31 32 33 34
766
FTUS43 KFSD 211720
TAFSUX
TAF
KSUX 211720Z 2118/2218 29006KT P6SM OVC015
      TEMPO 2118/2119 BKN008
     FM211900 28006KT P6SM OVC015
     FM212100 24004KT P6SM BKN040
     FM220200 15004KT P6SM SCT200
     FM220700 10004KT P6SM BKN045
     FM221500 14007KT P6SM SCT045=

USA.gov is the U.S. government's official web portal to all federal, state and local government web resources and services.